Terminal Aerodrome Forecast
Issued by NWS Duluth, MN

Home | Current Version | Previous Version | Text Only | Print | Product List | Glossary On
Versions: 1 2 3 4 5 6 7 8 9 10 11 12 13 14 15 16 17 18 19 20 21 22 23 24 25 26 27 28 29 30 31 32 33 34 35 36 37 38 39 40 41 42 43
000
FTUS43 KDLH 291500 AAC
TAFDLH
TAF AMD
KDLH 291535Z 2916/3012 12011KT 4SM -RA BR OVC002
     FM291700 12006KT 4SM BR VCSH OVC004
     FM292000 10006KT 5SM BR VCTS OVC009CB
      TEMPO 2920/2924 3SM TSRA BR OVC015CB
     FM300200 VRB03KT 1SM BR OVC004=

USA.gov is the U.S. government's official web portal to all federal, state and local government web resources and services.